createdAt,value
2022-11-05T00:01:01.844Z,77.00
2022-11-05T00:03:47.755Z,76.40
2022-11-05T00:06:33.673Z,76.60
2022-11-05T00:09:19.676Z,76.60
2022-11-05T00:12:08.085Z,76.90
2022-11-05T00:14:55.304Z,76.70
2022-11-05T00:17:22.592Z,76.50
2022-11-05T00:19:49.867Z,76.40
2022-11-05T00:22:36.256Z,76.30
2022-11-05T00:25:18.824Z,76.30
2022-11-05T00:27:53.178Z,76.60
2022-11-05T00:30:25.839Z,77.20
2022-11-05T00:32:54.091Z,77.20
2022-11-05T00:35:22.782Z,76.70
2022-11-05T00:37:50.709Z,76.90
2022-11-05T00:40:19.084Z,77.90
2022-11-05T00:43:04.856Z,77.10
2022-11-05T00:45:32.392Z,77.40
2022-11-05T00:48:18.284Z,78.80
2022-11-05T00:50:46.030Z,79.10
2022-11-05T00:53:13.527Z,79.30
2022-11-05T00:55:46.195Z,79.30
2022-11-05T00:58:21.418Z,80.00
2022-11-05T01:00:57.834Z,77.80
2022-11-05T01:03:48.923Z,79.10
2022-11-05T01:06:18.890Z,79.00
2022-11-05T01:08:47.118Z,77.10
2022-11-05T01:11:37.719Z,77.20
2022-11-05T01:14:11.835Z,78.20
2022-11-05T01:16:40.879Z,78.40
2022-11-05T01:19:11.221Z,78.80
2022-11-05T01:21:38.802Z,77.10
2022-11-05T01:24:07.018Z,77.80
2022-11-05T01:26:34.271Z,78.60
2022-11-05T01:29:01.686Z,78.00
2022-11-05T01:31:29.978Z,79.10
2022-11-05T01:33:57.253Z,78.90
2022-11-05T01:36:24.555Z,78.60
2022-11-05T01:38:52.618Z,78.80
2022-11-05T01:41:19.973Z,79.40
2022-11-05T01:43:59.657Z,78.60
2022-11-05T01:46:46.263Z,78.20
2022-11-05T01:49:32.882Z,78.80
2022-11-05T01:52:04.709Z,79.60
2022-11-05T01:54:34.606Z,78.50
2022-11-05T01:57:09.484Z,79.00
2022-11-05T01:59:55.547Z,78.40
2022-11-05T02:02:25.222Z,78.60
2022-11-05T02:05:03.196Z,78.80
2022-11-05T02:07:30.877Z,78.60
2022-11-05T02:10:09.659Z,78.10
2022-11-05T02:12:41.380Z,77.60
2022-11-05T02:15:48.250Z,76.90
2022-11-05T02:18:36.344Z,77.40
2022-11-05T02:22:11.718Z,78.00
2022-11-05T02:25:28.827Z,78.00
2022-11-05T02:28:53.399Z,78.10
2022-11-05T02:32:03.087Z,78.10
2022-11-05T02:35:09.228Z,77.80
2022-11-05T02:37:51.202Z,77.30
2022-11-05T02:40:40.534Z,77.70
2022-11-05T02:44:06.586Z,78.40
2022-11-05T02:47:03.370Z,78.50
2022-11-05T02:49:54.240Z,78.70
2022-11-05T02:53:00.545Z,79.40
2022-11-05T02:55:50.796Z,79.30
2022-11-05T02:58:18.070Z,79.30
2022-11-05T03:00:53.419Z,79.20
2022-11-05T03:03:34.411Z,79.40
2022-11-05T03:07:10.590Z,79.60
2022-11-05T03:10:44.547Z,79.70
2022-11-05T03:13:50.743Z,79.80
2022-11-05T03:16:37.214Z,79.90
2022-11-05T03:19:28.555Z,79.80
2022-11-05T03:22:11.960Z,80.10
2022-11-05T03:24:51.344Z,80.20
2022-11-05T03:27:31.722Z,80.60
2022-11-05T03:30:10.275Z,80.40
2022-11-05T03:32:49.316Z,80.40
2022-11-05T03:35:27.019Z,80.60
2022-11-05T03:38:10.340Z,80.60
2022-11-05T03:40:40.914Z,80.70
2022-11-05T03:43:09.677Z,80.80
2022-11-05T03:46:03.661Z,80.30
2022-11-05T03:48:33.385Z,80.80
2022-11-05T03:51:25.566Z,81.10
2022-11-05T03:54:01.040Z,81.20
2022-11-05T03:57:10.743Z,81.30
2022-11-05T03:59:48.537Z,81.00
2022-11-05T04:02:21.983Z,81.40
2022-11-05T04:04:49.629Z,81.60
2022-11-05T04:07:37.087Z,81.60
2022-11-05T04:10:23.881Z,81.40
2022-11-05T04:13:10.875Z,82.10
2022-11-05T04:16:07.503Z,82.40
2022-11-05T04:18:37.339Z,83.30
2022-11-05T04:21:25.750Z,84.60
2022-11-05T04:24:12.007Z,84.60
2022-11-05T04:26:43.773Z,86.00
2022-11-05T04:29:30.649Z,85.00
2022-11-05T04:31:58.247Z,85.50
2022-11-05T04:34:25.550Z,85.60
2022-11-05T04:36:53.544Z,85.20
2022-11-05T04:39:21.657Z,84.70
2022-11-05T04:41:49.070Z,85.80
2022-11-05T04:44:16.981Z,84.90
2022-11-05T04:46:44.310Z,86.10
2022-11-05T04:49:11.599Z,85.00
2022-11-05T04:51:39.650Z,84.60
2022-11-05T04:54:07.326Z,83.90
2022-11-05T04:56:34.705Z,85.10
2022-11-05T04:59:02.551Z,85.20
2022-11-05T05:01:29.871Z,85.90
2022-11-05T05:03:57.314Z,85.80
2022-11-05T05:06:26.206Z,86.50
2022-11-05T05:08:53.510Z,85.30
2022-11-05T05:11:22.656Z,85.10
2022-11-05T05:13:50.290Z,84.90
2022-11-05T05:16:28.038Z,83.90
2022-11-05T05:18:57.136Z,84.90
2022-11-05T05:21:39.842Z,84.40
2022-11-05T05:24:15.248Z,84.70
2022-11-05T05:26:48.078Z,85.20
2022-11-05T05:29:17.086Z,85.70
2022-11-05T05:31:44.775Z,85.40
2022-11-05T05:34:14.576Z,85.70
2022-11-05T05:36:42.172Z,85.90
2022-11-05T05:39:11.121Z,86.20
2022-11-05T05:41:38.577Z,87.10
2022-11-05T05:44:06.801Z,86.60
2022-11-05T05:46:34.299Z,86.70
2022-11-05T05:49:01.595Z,87.10
2022-11-05T05:51:28.985Z,86.70
2022-11-05T05:53:56.353Z,86.80
2022-11-05T05:56:23.622Z,86.50
2022-11-05T05:58:50.914Z,87.10
2022-11-05T06:01:19.960Z,86.00
2022-11-05T06:03:49.162Z,85.70
2022-11-05T06:06:21.261Z,85.80
2022-11-05T06:08:49.191Z,86.70
2022-11-05T06:11:16.685Z,87.00
2022-11-05T06:13:44.066Z,86.60
2022-11-05T06:16:11.471Z,87.50
2022-11-05T06:18:38.956Z,86.80
2022-11-05T06:21:15.354Z,86.60
2022-11-05T06:23:45.933Z,86.90
2022-11-05T06:26:18.768Z,87.60
2022-11-05T06:28:46.464Z,87.90
2022-11-05T06:31:15.206Z,88.10
2022-11-05T06:33:42.576Z,88.20
2022-11-05T06:36:17.775Z,88.30
2022-11-05T06:38:45.316Z,88.30
2022-11-05T06:41:12.746Z,87.90
2022-11-05T06:43:40.093Z,87.50
2022-11-05T06:46:08.277Z,87.20
2022-11-05T06:48:35.683Z,87.70
2022-11-05T06:51:03.877Z,87.30
2022-11-05T06:53:31.403Z,87.40
2022-11-05T06:56:06.958Z,87.90
2022-11-05T06:58:34.896Z,87.90
2022-11-05T07:01:09.967Z,87.30
2022-11-05T07:03:38.965Z,87.20
2022-11-05T07:06:07.885Z,86.60
2022-11-05T07:08:37.982Z,86.20
2022-11-05T07:11:06.236Z,86.80
2022-11-05T07:13:33.694Z,85.90
2022-11-05T07:16:01.113Z,86.60
2022-11-05T07:18:28.366Z,86.00
2022-11-05T07:20:55.623Z,84.70
2022-11-05T07:23:22.961Z,85.50
2022-11-05T07:25:50.275Z,85.90
2022-11-05T07:28:17.871Z,86.30
2022-11-05T07:30:46.118Z,86.30
2022-11-05T07:33:13.849Z,86.10
2022-11-05T07:35:41.424Z,86.30
2022-11-05T07:38:10.119Z,86.60
2022-11-05T07:40:37.454Z,86.00
2022-11-05T07:43:04.726Z,86.30
2022-11-05T07:45:32.189Z,87.10
2022-11-05T07:48:03.971Z,87.20
2022-11-05T07:50:37.684Z,87.10
2022-11-05T07:53:15.024Z,87.50
2022-11-05T07:55:44.081Z,87.70
2022-11-05T07:58:12.186Z,88.10
2022-11-05T08:00:39.538Z,87.80
2022-11-05T08:03:19.218Z,87.90
2022-11-05T08:05:47.922Z,88.10
2022-11-05T08:08:19.718Z,87.90
2022-11-05T08:10:47.581Z,88.20
2022-11-05T08:13:16.065Z,88.20
2022-11-05T08:15:44.817Z,87.40
2022-11-05T08:18:17.515Z,88.40
2022-11-05T08:20:46.881Z,88.70
2022-11-05T08:23:14.792Z,88.40
2022-11-05T08:25:43.223Z,88.10
2022-11-05T08:28:16.074Z,88.30
2022-11-05T08:30:43.446Z,88.90
2022-11-05T08:33:13.630Z,88.70
2022-11-05T08:35:41.370Z,88.50
2022-11-05T08:38:16.442Z,86.70
2022-11-05T08:40:53.335Z,86.60
2022-11-05T08:43:20.703Z,87.70
2022-11-05T08:45:47.986Z,87.20
2022-11-05T08:48:19.052Z,86.80
2022-11-05T08:50:49.032Z,86.90
2022-11-05T08:53:16.837Z,86.90
2022-11-05T08:55:46.381Z,86.30
2022-11-05T08:58:16.970Z,86.70
2022-11-05T09:00:48.753Z,85.90
2022-11-05T09:03:16.850Z,84.70
2022-11-05T09:05:44.325Z,84.50
2022-11-05T09:08:18.916Z,84.20
2022-11-05T09:10:47.860Z,84.30
2022-11-05T09:13:19.256Z,84.70
2022-11-05T09:15:51.414Z,84.70
2022-11-05T09:18:20.322Z,84.70
2022-11-05T09:20:47.851Z,84.90
2022-11-05T09:26:47.071Z,83.00
2022-11-05T09:29:15.480Z,82.60
2022-11-05T09:31:42.815Z,82.20
2022-11-05T09:34:10.084Z,82.40
2022-11-05T09:36:37.391Z,82.50
2022-11-05T09:39:05.486Z,83.00
2022-11-05T09:41:41.252Z,83.10
2022-11-05T09:44:38.599Z,82.30
2022-11-05T09:47:21.727Z,81.50
2022-11-05T09:49:54.657Z,80.90
2022-11-05T09:52:30.787Z,80.30
2022-11-05T09:54:58.827Z,81.20
2022-11-05T09:57:54.574Z,81.40
2022-11-05T10:00:22.540Z,80.70
2022-11-05T10:03:06.217Z,79.90
2022-11-05T10:05:34.608Z,79.30
2022-11-05T10:08:41.675Z,78.10
2022-11-05T10:11:31.792Z,78.10
2022-11-05T10:14:22.847Z,77.80
2022-11-05T10:17:03.574Z,78.40
2022-11-05T10:19:50.709Z,77.90
2022-11-05T10:22:20.268Z,79.20
2022-11-05T10:24:51.594Z,78.60
2022-11-05T10:27:37.478Z,78.70
2022-11-05T10:30:06.178Z,76.40
2022-11-05T10:32:40.288Z,77.80
2022-11-05T10:35:18.612Z,77.60
2022-11-05T10:37:47.540Z,76.60
2022-11-05T10:40:55.718Z,76.80
2022-11-05T10:43:49.969Z,76.60
2022-11-05T10:46:49.315Z,74.80
2022-11-05T10:49:57.807Z,75.30
2022-11-05T10:53:03.532Z,75.60
2022-11-05T10:56:01.518Z,76.10
2022-11-05T10:58:35.408Z,76.20
2022-11-05T11:01:12.163Z,76.50
2022-11-05T11:04:03.973Z,75.10
2022-11-05T11:06:39.515Z,76.10
2022-11-05T11:09:38.110Z,75.00
2022-11-05T11:12:27.444Z,75.20
2022-11-05T11:15:21.247Z,74.10
2022-11-05T11:17:48.584Z,74.70
2022-11-05T11:20:30.612Z,75.10
2022-11-05T11:23:17.656Z,75.20
2022-11-05T11:26:01.515Z,73.60
2022-11-05T11:29:00.682Z,73.50
2022-11-05T11:31:39.019Z,73.40
2022-11-05T11:34:38.763Z,74.10
2022-11-05T11:37:32.936Z,73.50
2022-11-05T11:40:24.226Z,73.40
2022-11-05T11:43:02.833Z,72.60
2022-11-05T11:45:49.591Z,72.70
2022-11-05T11:48:29.215Z,71.90
2022-11-05T11:50:58.910Z,72.10
2022-11-05T11:53:35.891Z,72.10
2022-11-05T11:56:11.966Z,70.60
2022-11-05T11:58:54.031Z,70.60
2022-11-05T12:02:19.259Z,69.20
2022-11-05T12:05:03.738Z,68.60
2022-11-05T12:07:57.999Z,67.80
2022-11-05T12:11:18.215Z,67.50
2022-11-05T12:14:50.115Z,66.50
2022-11-05T12:18:03.264Z,67.10
2022-11-05T12:21:07.570Z,67.10
2022-11-05T12:24:34.576Z,66.30
2022-11-05T12:29:04.631Z,66.20
2022-11-05T12:32:44.761Z,66.20
2022-11-05T12:35:49.867Z,63.40
2022-11-05T12:39:34.487Z,64.40
2022-11-05T12:43:20.070Z,63.10
2022-11-05T12:46:25.412Z,60.40
2022-11-05T12:49:54.924Z,59.70
2022-11-05T12:53:15.585Z,60.00
2022-11-05T12:55:49.404Z,58.50
2022-11-05T12:58:47.406Z,57.60
2022-11-05T13:01:31.003Z,57.40
2022-11-05T13:04:08.813Z,57.20
2022-11-05T13:06:47.122Z,57.60
2022-11-05T13:09:49.330Z,58.90
2022-11-05T13:12:24.185Z,58.80
2022-11-05T13:15:00.971Z,58.90
2022-11-05T13:17:59.989Z,57.10
2022-11-05T13:20:38.476Z,57.40
2022-11-05T13:23:39.767Z,57.40
2022-11-05T13:26:29.410Z,56.00
2022-11-05T13:29:15.500Z,57.10
2022-11-05T13:32:01.369Z,56.60
2022-11-05T13:34:32.223Z,56.90
2022-11-05T13:37:27.077Z,57.50
2022-11-05T13:40:02.533Z,58.10
2022-11-05T13:42:56.393Z,57.40
2022-11-05T13:46:27.742Z,58.20
2022-11-05T13:49:51.730Z,57.10
2022-11-05T13:53:11.278Z,56.60
2022-11-05T13:56:39.129Z,57.40
2022-11-05T14:00:12.466Z,57.40
2022-11-05T14:02:59.496Z,57.80
2022-11-05T14:05:41.345Z,58.90
2022-11-05T14:08:21.158Z,59.50
2022-11-05T14:11:01.140Z,59.60
2022-11-05T14:13:42.238Z,58.70
2022-11-05T14:16:26.605Z,58.60
2022-11-05T14:19:18.564Z,57.20
2022-11-05T14:21:58.433Z,58.40
2022-11-05T14:24:38.354Z,58.50
2022-11-05T14:27:05.370Z,57.60
2022-11-05T14:29:46.051Z,57.90
2022-11-05T14:32:20.156Z,58.80
2022-11-05T14:35:17.756Z,57.00
2022-11-05T14:37:58.807Z,58.00
2022-11-05T14:40:43.608Z,57.30
2022-11-05T14:43:26.734Z,57.40
2022-11-05T14:46:08.143Z,58.10
2022-11-05T14:49:08.182Z,58.30
2022-11-05T14:51:47.778Z,58.30
2022-11-05T14:54:37.019Z,58.50
2022-11-05T14:57:04.834Z,58.90
2022-11-05T14:59:57.067Z,59.10
2022-11-05T15:02:37.650Z,59.40
2022-11-05T15:05:47.867Z,60.60
2022-11-05T15:08:27.224Z,61.40
2022-11-05T15:11:30.251Z,62.10
2022-11-05T15:14:19.642Z,62.70
2022-11-05T15:16:55.920Z,62.60
2022-11-05T15:19:37.102Z,63.00
2022-11-05T15:22:40.658Z,63.10
2022-11-05T15:25:47.744Z,61.00
2022-11-05T15:28:53.019Z,60.60
2022-11-05T15:31:37.531Z,61.00
2022-11-05T15:34:35.454Z,61.70
2022-11-05T15:37:10.726Z,61.20
2022-11-05T15:39:49.094Z,61.30
2022-11-05T15:42:27.613Z,61.80
2022-11-05T15:45:00.058Z,61.90
2022-11-05T15:47:35.634Z,62.10
2022-11-05T15:50:15.412Z,61.70
2022-11-05T15:52:54.823Z,61.80
2022-11-05T15:55:26.212Z,62.20
2022-11-05T15:58:06.957Z,62.30
2022-11-05T16:00:37.430Z,62.60
2022-11-05T16:03:31.894Z,63.20
2022-11-05T16:06:01.648Z,63.40
2022-11-05T16:08:30.579Z,63.00
2022-11-05T16:11:01.008Z,63.20
2022-11-05T16:13:41.716Z,63.10
2022-11-05T16:16:15.597Z,62.60
2022-11-05T16:18:45.269Z,63.00
2022-11-05T16:21:23.206Z,63.50
2022-11-05T16:23:58.571Z,63.70
2022-11-05T16:27:02.207Z,64.50
2022-11-05T16:29:38.620Z,64.20
2022-11-05T16:32:31.860Z,64.20
2022-11-05T16:35:07.301Z,64.30
2022-11-05T16:37:45.230Z,64.20
2022-11-05T16:40:25.321Z,65.00
2022-11-05T16:42:55.149Z,65.30
2022-11-05T16:45:25.238Z,65.40
2022-11-05T16:47:52.780Z,65.90
2022-11-05T16:50:32.685Z,66.50
2022-11-05T16:52:59.970Z,66.40
2022-11-05T16:55:27.386Z,66.10
2022-11-05T16:57:56.319Z,65.20
2022-11-05T17:00:25.537Z,65.20
2022-11-05T17:02:53.681Z,65.80
2022-11-05T17:05:31.248Z,66.80
2022-11-05T17:08:00.570Z,66.80
2022-11-05T17:10:28.301Z,66.80
2022-11-05T17:12:56.822Z,67.40
2022-11-05T17:15:35.548Z,67.30
2022-11-05T17:18:05.615Z,68.00
2022-11-05T17:20:44.853Z,68.30
2022-11-05T17:23:17.655Z,68.40
2022-11-05T17:25:52.503Z,68.50
2022-11-05T17:28:21.695Z,68.70
2022-11-05T17:30:52.695Z,68.90
2022-11-05T17:33:22.860Z,70.00
2022-11-05T17:35:53.178Z,70.10
2022-11-05T17:38:23.487Z,70.00
2022-11-05T17:40:51.494Z,69.50
2022-11-05T17:43:20.208Z,69.60
2022-11-05T17:45:53.750Z,69.00
2022-11-05T17:48:21.694Z,69.60
2022-11-05T17:50:51.042Z,68.60
2022-11-05T17:53:20.030Z,68.40
2022-11-05T17:55:48.119Z,68.50
2022-11-05T17:58:16.164Z,69.50
2022-11-05T18:00:46.671Z,70.30
2022-11-05T18:03:14.681Z,70.50
2022-11-05T18:05:42.860Z,71.40
2022-11-05T18:08:12.486Z,71.30
2022-11-05T18:10:41.447Z,71.40
2022-11-05T18:13:10.286Z,71.60
2022-11-05T18:15:41.741Z,70.60
2022-11-05T18:18:09.364Z,70.70
2022-11-05T18:20:37.153Z,70.40
2022-11-05T18:23:04.795Z,70.20
2022-11-05T18:25:32.066Z,70.30
2022-11-05T18:27:59.347Z,70.70
2022-11-05T18:30:27.435Z,70.80
2022-11-05T18:32:54.727Z,70.80
2022-11-05T18:35:21.979Z,71.10
2022-11-05T18:37:49.401Z,71.10
2022-11-05T18:40:16.739Z,71.20
2022-11-05T18:42:44.104Z,71.30
2022-11-05T18:45:12.524Z,71.60
2022-11-05T18:47:39.835Z,72.00
2022-11-05T18:50:10.476Z,72.00
2022-11-05T18:52:37.826Z,72.40
2022-11-05T18:55:06.274Z,72.20
2022-11-05T18:57:34.591Z,72.70
2022-11-05T19:00:03.558Z,72.30
2022-11-05T19:02:30.897Z,72.60
2022-11-05T19:07:45.547Z,72.90
2022-11-05T19:10:12.847Z,73.50
2022-11-05T19:12:40.276Z,73.10
2022-11-05T19:15:09.198Z,73.40
2022-11-05T19:17:36.893Z,73.40
2022-11-05T19:20:06.203Z,73.60
2022-11-05T19:22:33.733Z,73.50
2022-11-05T19:25:01.072Z,73.60
2022-11-05T19:27:28.428Z,73.60
2022-11-05T19:29:56.527Z,73.80
2022-11-05T19:32:24.484Z,73.70
2022-11-05T19:34:51.762Z,73.80
2022-11-05T19:37:19.906Z,73.80
2022-11-05T19:39:48.073Z,73.70
2022-11-05T19:42:15.383Z,73.80
2022-11-05T19:44:43.716Z,73.90
2022-11-05T19:47:11.142Z,74.00
2022-11-05T19:49:38.407Z,74.20
2022-11-05T19:52:06.713Z,74.00
2022-11-05T19:54:35.933Z,74.30
2022-11-05T19:57:03.259Z,74.50
2022-11-05T19:59:30.569Z,74.60
2022-11-05T20:01:57.931Z,74.60
2022-11-05T20:04:25.252Z,74.30
2022-11-05T20:06:53.706Z,74.20
2022-11-05T20:09:22.498Z,74.50
2022-11-05T20:11:54.639Z,74.40
2022-11-05T20:14:25.110Z,74.40
2022-11-05T20:16:54.389Z,74.30
2022-11-05T20:19:23.164Z,74.50
2022-11-05T20:21:50.655Z,74.60
2022-11-05T20:24:25.261Z,74.70
2022-11-05T20:26:57.397Z,74.80
2022-11-05T20:29:32.149Z,75.10
2022-11-05T20:32:03.540Z,75.00
2022-11-05T20:34:32.976Z,75.30
2022-11-05T20:37:01.006Z,75.30
2022-11-05T20:39:29.306Z,75.70
2022-11-05T20:42:00.709Z,75.80
2022-11-05T20:44:28.429Z,76.00
2022-11-05T20:46:56.279Z,76.10
2022-11-05T20:49:25.670Z,76.10
2022-11-05T20:51:54.025Z,76.40
2022-11-05T20:54:21.436Z,76.40
2022-11-05T20:56:49.613Z,76.40
2022-11-05T20:59:17.155Z,76.60
2022-11-05T21:01:44.534Z,75.80
2022-11-05T21:04:13.105Z,76.20
2022-11-05T21:06:40.644Z,76.30
2022-11-05T21:09:08.146Z,76.20
2022-11-05T21:11:54.672Z,76.60
2022-11-05T21:14:21.945Z,76.60
2022-11-05T21:16:49.270Z,76.90
2022-11-05T21:19:16.565Z,77.00
2022-11-05T21:21:43.814Z,77.20
2022-11-05T21:24:11.076Z,77.50
2022-11-05T21:26:38.339Z,77.60
2022-11-05T21:29:05.710Z,77.70
2022-11-05T21:31:35.570Z,77.90
2022-11-05T21:34:02.864Z,77.50
2022-11-05T21:36:30.186Z,77.70
2022-11-05T21:38:57.472Z,77.30
2022-11-05T21:41:24.819Z,77.20
2022-11-05T21:43:52.326Z,77.70
2022-11-05T21:46:21.260Z,77.30
2022-11-05T21:48:48.725Z,77.60
2022-11-05T21:51:34.523Z,78.20
2022-11-05T21:54:20.522Z,78.80
2022-11-05T21:57:10.622Z,79.20
2022-11-05T21:59:55.964Z,79.20
2022-11-05T22:02:25.487Z,79.50
2022-11-05T22:04:57.200Z,79.70
2022-11-05T22:07:31.583Z,80.00
2022-11-05T22:10:00.428Z,80.00
2022-11-05T22:12:29.218Z,79.90
2022-11-05T22:14:57.099Z,79.90
2022-11-05T22:17:24.923Z,80.00
2022-11-05T22:19:52.439Z,80.40
2022-11-05T22:22:19.975Z,80.40
2022-11-05T22:24:47.564Z,80.60
2022-11-05T22:27:21.472Z,80.80
2022-11-05T22:29:49.789Z,80.60
2022-11-05T22:32:17.206Z,80.30
2022-11-05T22:34:44.750Z,80.60
2022-11-05T22:37:13.716Z,80.60
2022-11-05T22:39:41.323Z,80.30
2022-11-05T22:42:09.095Z,80.50
2022-11-05T22:44:37.391Z,80.10
2022-11-05T22:47:06.079Z,80.00
2022-11-05T22:49:34.207Z,79.90
2022-11-05T22:52:02.293Z,79.80
2022-11-05T22:54:32.710Z,79.80
2022-11-05T22:57:02.427Z,79.90
2022-11-05T22:59:29.695Z,79.60
2022-11-05T23:01:57.175Z,79.00
2022-11-05T23:04:24.508Z,79.10
2022-11-05T23:07:10.494Z,79.00
2022-11-05T23:09:57.365Z,78.60
2022-11-05T23:12:42.515Z,78.60
2022-11-05T23:15:30.935Z,78.70
2022-11-05T23:18:16.783Z,78.80
2022-11-05T23:21:02.866Z,79.10
2022-11-05T23:23:48.982Z,79.30
2022-11-05T23:26:37.793Z,79.90
2022-11-05T23:29:05.351Z,80.50
2022-11-05T23:31:51.511Z,80.60
2022-11-05T23:34:18.787Z,80.90
2022-11-05T23:37:04.645Z,81.00
2022-11-05T23:39:31.996Z,81.30
2022-11-05T23:42:17.781Z,81.50
2022-11-05T23:45:08.260Z,82.00
2022-11-05T23:48:04.202Z,82.00
2022-11-05T23:50:38.357Z,82.00
2022-11-05T23:53:07.753Z,82.40
2022-11-05T23:55:35.324Z,82.00
2022-11-05T23:58:02.773Z,82.20
